sensor_id;sensor_type;location;lat;lon;timestamp;P1;durP1;ratioP1;P2;durP2;ratioP2
4963;SDS011;2497;47.410;9.740;2023-08-21T00:02:10;5.70;;;4.30;;
4963;SDS011;2497;47.410;9.740;2023-08-21T00:04:37;6.37;;;4.10;;
4963;SDS011;2497;47.410;9.740;2023-08-21T00:07:05;6.80;;;4.00;;
4963;SDS011;2497;47.410;9.740;2023-08-21T00:09:34;7.40;;;5.17;;
4963;SDS011;2497;47.410;9.740;2023-08-21T00:12:01;7.03;;;4.70;;
4963;SDS011;2497;47.410;9.740;2023-08-21T00:14:28;5.90;;;4.50;;
4963;SDS011;2497;47.410;9.740;2023-08-21T00:16:55;6.43;;;4.10;;
4963;SDS011;2497;47.410;9.740;2023-08-21T00:19:22;7.47;;;5.00;;
4963;SDS011;2497;47.410;9.740;2023-08-21T00:21:49;7.20;;;4.90;;
4963;SDS011;2497;47.410;9.740;2023-08-21T00:24:18;5.13;;;4.53;;
4963;SDS011;2497;47.410;9.740;2023-08-21T00:26:45;10.30;;;4.60;;
4963;SDS011;2497;47.410;9.740;2023-08-21T00:29:12;6.10;;;4.33;;
4963;SDS011;2497;47.410;9.740;2023-08-21T00:31:39;7.83;;;4.63;;
4963;SDS011;2497;47.410;9.740;2023-08-21T00:34:06;5.20;;;4.43;;
4963;SDS011;2497;47.410;9.740;2023-08-21T00:36:33;6.57;;;4.27;;
4963;SDS011;2497;47.410;9.740;2023-08-21T00:39:00;10.60;;;5.30;;
4963;SDS011;2497;47.410;9.740;2023-08-21T00:41:29;5.60;;;4.47;;
4963;SDS011;2497;47.410;9.740;2023-08-21T00:43:56;8.17;;;4.40;;
4963;SDS011;2497;47.410;9.740;2023-08-21T00:46:23;5.90;;;3.73;;
4963;SDS011;2497;47.410;9.740;2023-08-21T00:48:50;8.93;;;4.37;;
4963;SDS011;2497;47.410;9.740;2023-08-21T00:51:17;6.40;;;4.40;;
4963;SDS011;2497;47.410;9.740;2023-08-21T00:53:45;6.50;;;4.57;;
4963;SDS011;2497;47.410;9.740;2023-08-21T00:56:12;8.10;;;4.83;;
4963;SDS011;2497;47.410;9.740;2023-08-21T00:58:41;7.20;;;4.63;;
4963;SDS011;2497;47.410;9.740;2023-08-21T01:01:09;6.37;;;5.23;;
4963;SDS011;2497;47.410;9.740;2023-08-21T01:03:36;6.03;;;4.10;;
4963;SDS011;2497;47.410;9.740;2023-08-21T01:06:03;6.20;;;4.30;;
4963;SDS011;2497;47.410;9.740;2023-08-21T01:08:34;7.13;;;4.30;;
4963;SDS011;2497;47.410;9.740;2023-08-21T01:11:08;5.87;;;4.07;;
4963;SDS011;2497;47.410;9.740;2023-08-21T01:13:47;7.37;;;4.10;;
4963;SDS011;2497;47.410;9.740;2023-08-21T01:16:20;9.73;;;4.73;;
4963;SDS011;2497;47.410;9.740;2023-08-21T01:18:48;6.17;;;4.73;;
4963;SDS011;2497;47.410;9.740;2023-08-21T01:21:16;10.00;;;4.13;;
4963;SDS011;2497;47.410;9.740;2023-08-21T01:23:45;7.37;;;4.50;;
4963;SDS011;2497;47.410;9.740;2023-08-21T01:26:12;9.50;;;4.70;;
4963;SDS011;2497;47.410;9.740;2023-08-21T01:28:39;6.43;;;4.53;;
4963;SDS011;2497;47.410;9.740;2023-08-21T01:31:08;6.93;;;4.87;;
4963;SDS011;2497;47.410;9.740;2023-08-21T01:33:42;8.50;;;5.10;;
4963;SDS011;2497;47.410;9.740;2023-08-21T01:36:12;6.47;;;4.10;;
4963;SDS011;2497;47.410;9.740;2023-08-21T01:38:40;7.27;;;4.50;;
4963;SDS011;2497;47.410;9.740;2023-08-21T01:41:09;6.50;;;4.50;;
4963;SDS011;2497;47.410;9.740;2023-08-21T01:43:36;10.97;;;4.97;;
4963;SDS011;2497;47.410;9.740;2023-08-21T01:46:03;7.30;;;4.93;;
4963;SDS011;2497;47.410;9.740;2023-08-21T01:48:30;8.80;;;5.03;;
4963;SDS011;2497;47.410;9.740;2023-08-21T01:50:57;5.57;;;4.07;;
4963;SDS011;2497;47.410;9.740;2023-08-21T01:53:24;11.40;;;4.60;;
4963;SDS011;2497;47.410;9.740;2023-08-21T01:55:51;5.40;;;3.77;;
4963;SDS011;2497;47.410;9.740;2023-08-21T01:58:19;6.07;;;4.20;;
4963;SDS011;2497;47.410;9.740;2023-08-21T02:00:46;7.53;;;4.63;;
4963;SDS011;2497;47.410;9.740;2023-08-21T02:03:13;6.60;;;4.60;;
4963;SDS011;2497;47.410;9.740;2023-08-21T02:05:41;11.30;;;5.00;;
4963;SDS011;2497;47.410;9.740;2023-08-21T02:08:09;6.43;;;4.50;;
4963;SDS011;2497;47.410;9.740;2023-08-21T02:10:46;6.57;;;4.80;;
4963;SDS011;2497;47.410;9.740;2023-08-21T02:13:14;6.90;;;4.57;;
4963;SDS011;2497;47.410;9.740;2023-08-21T02:15:42;8.50;;;4.83;;
4963;SDS011;2497;47.410;9.740;2023-08-21T02:18:09;5.80;;;4.70;;
4963;SDS011;2497;47.410;9.740;2023-08-21T02:20:36;7.30;;;4.43;;
4963;SDS011;2497;47.410;9.740;2023-08-21T02:23:04;6.30;;;4.10;;
4963;SDS011;2497;47.410;9.740;2023-08-21T02:25:31;8.10;;;4.40;;
4963;SDS011;2497;47.410;9.740;2023-08-21T02:27:58;5.53;;;4.03;;
4963;SDS011;2497;47.410;9.740;2023-08-21T02:30:25;5.10;;;4.60;;
4963;SDS011;2497;47.410;9.740;2023-08-21T02:32:54;9.30;;;5.00;;
4963;SDS011;2497;47.410;9.740;2023-08-21T02:35:21;6.80;;;4.80;;
4963;SDS011;2497;47.410;9.740;2023-08-21T02:37:49;6.70;;;4.30;;
4963;SDS011;2497;47.410;9.740;2023-08-21T02:40:16;6.47;;;4.00;;
4963;SDS011;2497;47.410;9.740;2023-08-21T02:42:43;9.33;;;4.53;;
4963;SDS011;2497;47.410;9.740;2023-08-21T02:45:10;7.03;;;4.07;;
4963;SDS011;2497;47.410;9.740;2023-08-21T02:47:37;6.43;;;4.53;;
4963;SDS011;2497;47.410;9.740;2023-08-21T02:50:07;7.07;;;4.27;;
4963;SDS011;2497;47.410;9.740;2023-08-21T02:52:35;8.27;;;4.80;;
4963;SDS011;2497;47.410;9.740;2023-08-21T02:55:02;6.50;;;4.60;;
4963;SDS011;2497;47.410;9.740;2023-08-21T02:57:30;7.00;;;4.97;;
4963;SDS011;2497;47.410;9.740;2023-08-21T02:59:57;5.90;;;4.57;;
4963;SDS011;2497;47.410;9.740;2023-08-21T03:02:24;5.40;;;4.23;;
4963;SDS011;2497;47.410;9.740;2023-08-21T03:04:51;5.87;;;4.53;;
4963;SDS011;2497;47.410;9.740;2023-08-21T03:07:19;8.03;;;4.30;;
4963;SDS011;2497;47.410;9.740;2023-08-21T03:09:47;6.37;;;4.70;;
4963;SDS011;2497;47.410;9.740;2023-08-21T03:12:14;8.50;;;4.60;;
4963;SDS011;2497;47.410;9.740;2023-08-21T03:14:41;7.13;;;4.33;;
4963;SDS011;2497;47.410;9.740;2023-08-21T03:17:08;6.83;;;4.77;;
4963;SDS011;2497;47.410;9.740;2023-08-21T03:19:35;6.60;;;4.33;;
4963;SDS011;2497;47.410;9.740;2023-08-21T03:22:02;11.07;;;5.10;;
4963;SDS011;2497;47.410;9.740;2023-08-21T03:24:31;14.00;;;5.20;;
4963;SDS011;2497;47.410;9.740;2023-08-21T03:26:58;7.60;;;4.87;;
4963;SDS011;2497;47.410;9.740;2023-08-21T03:29:25;8.60;;;5.40;;
4963;SDS011;2497;47.410;9.740;2023-08-21T03:31:52;8.07;;;4.60;;
4963;SDS011;2497;47.410;9.740;2023-08-21T03:34:20;6.40;;;4.67;;
4963;SDS011;2497;47.410;9.740;2023-08-21T03:36:47;5.40;;;4.70;;
4963;SDS011;2497;47.410;9.740;2023-08-21T03:39:14;7.60;;;5.30;;
4963;SDS011;2497;47.410;9.740;2023-08-21T03:41:42;5.70;;;4.17;;
4963;SDS011;2497;47.410;9.740;2023-08-21T03:44:09;6.63;;;4.53;;
4963;SDS011;2497;47.410;9.740;2023-08-21T03:46:36;5.70;;;4.10;;
4963;SDS011;2497;47.410;9.740;2023-08-21T03:49:03;5.10;;;4.10;;
4963;SDS011;2497;47.410;9.740;2023-08-21T03:51:30;8.83;;;5.00;;
4963;SDS011;2497;47.410;9.740;2023-08-21T03:53:57;7.20;;;5.03;;
4963;SDS011;2497;47.410;9.740;2023-08-21T03:56:24;9.70;;;5.00;;
4963;SDS011;2497;47.410;9.740;2023-08-21T03:58:53;8.10;;;4.90;;
4963;SDS011;2497;47.410;9.740;2023-08-21T04:01:21;9.10;;;5.10;;
4963;SDS011;2497;47.410;9.740;2023-08-21T04:03:48;8.83;;;5.73;;
4963;SDS011;2497;47.410;9.740;2023-08-21T04:06:15;9.03;;;4.50;;
4963;SDS011;2497;47.410;9.740;2023-08-21T04:08:42;7.70;;;4.40;;
4963;SDS011;2497;47.410;9.740;2023-08-21T04:11:09;7.80;;;4.77;;
4963;SDS011;2497;47.410;9.740;2023-08-21T04:13:36;6.20;;;4.37;;
4963;SDS011;2497;47.410;9.740;2023-08-21T04:16:05;7.93;;;4.00;;
4963;SDS011;2497;47.410;9.740;2023-08-21T04:18:33;6.13;;;4.13;;
4963;SDS011;2497;47.410;9.740;2023-08-21T04:21:02;9.43;;;4.83;;
4963;SDS011;2497;47.410;9.740;2023-08-21T04:23:29;6.60;;;4.23;;
4963;SDS011;2497;47.410;9.740;2023-08-21T04:25:59;7.83;;;4.70;;
4963;SDS011;2497;47.410;9.740;2023-08-21T04:28:27;8.00;;;5.40;;
4963;SDS011;2497;47.410;9.740;2023-08-21T04:30:56;8.50;;;5.10;;
4963;SDS011;2497;47.410;9.740;2023-08-21T04:33:25;10.97;;;5.97;;
4963;SDS011;2497;47.410;9.740;2023-08-21T04:35:54;13.87;;;6.37;;
4963;SDS011;2497;47.410;9.740;2023-08-21T04:38:21;15.57;;;7.00;;
4963;SDS011;2497;47.410;9.740;2023-08-21T04:40:48;10.13;;;6.10;;
4963;SDS011;2497;47.410;9.740;2023-08-21T04:43:15;10.10;;;5.73;;
4963;SDS011;2497;47.410;9.740;2023-08-21T04:45:47;10.90;;;5.70;;
4963;SDS011;2497;47.410;9.740;2023-08-21T04:48:15;11.87;;;5.90;;
4963;SDS011;2497;47.410;9.740;2023-08-21T04:50:43;7.17;;;5.03;;
4963;SDS011;2497;47.410;9.740;2023-08-21T04:53:11;9.07;;;5.07;;
4963;SDS011;2497;47.410;9.740;2023-08-21T04:55:39;14.47;;;5.60;;
4963;SDS011;2497;47.410;9.740;2023-08-21T04:58:09;9.57;;;4.90;;
4963;SDS011;2497;47.410;9.740;2023-08-21T05:00:36;6.30;;;4.33;;
4963;SDS011;2497;47.410;9.740;2023-08-21T05:03:05;6.07;;;4.10;;
4963;SDS011;2497;47.410;9.740;2023-08-21T05:05:34;7.43;;;4.90;;
4963;SDS011;2497;47.410;9.740;2023-08-21T05:08:03;7.57;;;4.80;;
4963;SDS011;2497;47.410;9.740;2023-08-21T05:10:30;8.20;;;4.80;;
4963;SDS011;2497;47.410;9.740;2023-08-21T05:12:57;7.83;;;4.87;;
4963;SDS011;2497;47.410;9.740;2023-08-21T05:15:24;6.90;;;5.00;;
4963;SDS011;2497;47.410;9.740;2023-08-21T05:17:51;7.97;;;5.23;;
4963;SDS011;2497;47.410;9.740;2023-08-21T05:20:18;6.00;;;4.20;;
4963;SDS011;2497;47.410;9.740;2023-08-21T05:22:45;6.70;;;4.53;;
4963;SDS011;2497;47.410;9.740;2023-08-21T05:25:14;8.70;;;4.90;;
4963;SDS011;2497;47.410;9.740;2023-08-21T05:27:41;7.20;;;4.47;;
4963;SDS011;2497;47.410;9.740;2023-08-21T05:30:08;8.13;;;5.30;;
4963;SDS011;2497;47.410;9.740;2023-08-21T05:32:37;11.60;;;5.30;;
4963;SDS011;2497;47.410;9.740;2023-08-21T05:35:07;9.10;;;4.80;;
4963;SDS011;2497;47.410;9.740;2023-08-21T05:37:39;7.27;;;4.90;;
4963;SDS011;2497;47.410;9.740;2023-08-21T05:40:08;10.40;;;4.97;;
4963;SDS011;2497;47.410;9.740;2023-08-21T05:42:39;7.00;;;4.93;;
4963;SDS011;2497;47.410;9.740;2023-08-21T05:45:06;6.50;;;4.27;;
4963;SDS011;2497;47.410;9.740;2023-08-21T05:47:33;5.40;;;4.13;;
4963;SDS011;2497;47.410;9.740;2023-08-21T05:50:00;6.60;;;4.13;;
4963;SDS011;2497;47.410;9.740;2023-08-21T05:52:35;10.33;;;4.63;;
4963;SDS011;2497;47.410;9.740;2023-08-21T05:55:03;8.13;;;5.13;;
4963;SDS011;2497;47.410;9.740;2023-08-21T05:57:31;16.37;;;5.07;;
4963;SDS011;2497;47.410;9.740;2023-08-21T06:00:04;6.13;;;4.53;;
4963;SDS011;2497;47.410;9.740;2023-08-21T06:02:33;8.10;;;4.80;;
4963;SDS011;2497;47.410;9.740;2023-08-21T06:05:00;7.60;;;4.90;;
4963;SDS011;2497;47.410;9.740;2023-08-21T06:07:28;11.10;;;6.00;;
4963;SDS011;2497;47.410;9.740;2023-08-21T06:09:58;6.57;;;5.00;;
4963;SDS011;2497;47.410;9.740;2023-08-21T06:12:25;11.43;;;4.87;;
4963;SDS011;2497;47.410;9.740;2023-08-21T06:14:53;8.70;;;4.80;;
4963;SDS011;2497;47.410;9.740;2023-08-21T06:17:21;7.47;;;4.87;;
4963;SDS011;2497;47.410;9.740;2023-08-21T06:19:53;6.77;;;4.40;;
4963;SDS011;2497;47.410;9.740;2023-08-21T06:22:20;8.20;;;4.37;;
4963;SDS011;2497;47.410;9.740;2023-08-21T06:24:47;7.70;;;5.20;;
4963;SDS011;2497;47.410;9.740;2023-08-21T06:27:22;8.27;;;4.70;;
4963;SDS011;2497;47.410;9.740;2023-08-21T06:29:49;7.43;;;4.50;;
4963;SDS011;2497;47.410;9.740;2023-08-21T06:32:16;6.27;;;5.07;;
4963;SDS011;2497;47.410;9.740;2023-08-21T06:34:44;9.93;;;5.10;;
4963;SDS011;2497;47.410;9.740;2023-08-21T06:37:11;6.83;;;4.83;;
4963;SDS011;2497;47.410;9.740;2023-08-21T06:39:39;9.20;;;4.57;;
4963;SDS011;2497;47.410;9.740;2023-08-21T06:42:06;8.40;;;4.80;;
4963;SDS011;2497;47.410;9.740;2023-08-21T06:44:33;6.77;;;4.40;;
4963;SDS011;2497;47.410;9.740;2023-08-21T06:47:04;6.97;;;5.20;;
4963;SDS011;2497;47.410;9.740;2023-08-21T06:49:31;6.17;;;4.70;;
4963;SDS011;2497;47.410;9.740;2023-08-21T06:51:59;8.87;;;4.47;;
4963;SDS011;2497;47.410;9.740;2023-08-21T06:54:26;9.43;;;4.97;;
4963;SDS011;2497;47.410;9.740;2023-08-21T06:56:53;9.83;;;5.00;;
4963;SDS011;2497;47.410;9.740;2023-08-21T06:59:20;7.67;;;4.80;;
4963;SDS011;2497;47.410;9.740;2023-08-21T07:01:49;7.40;;;5.50;;
4963;SDS011;2497;47.410;9.740;2023-08-21T07:04:18;11.27;;;5.37;;
4963;SDS011;2497;47.410;9.740;2023-08-21T07:06:45;9.80;;;5.70;;
4963;SDS011;2497;47.410;9.740;2023-08-21T07:09:14;10.10;;;6.23;;
4963;SDS011;2497;47.410;9.740;2023-08-21T07:11:44;6.37;;;4.70;;
4963;SDS011;2497;47.410;9.740;2023-08-21T07:14:11;8.43;;;5.50;;
4963;SDS011;2497;47.410;9.740;2023-08-21T07:16:42;14.60;;;5.30;;
4963;SDS011;2497;47.410;9.740;2023-08-21T07:19:09;6.70;;;4.80;;
4963;SDS011;2497;47.410;9.740;2023-08-21T07:21:39;7.53;;;4.83;;
4963;SDS011;2497;47.410;9.740;2023-08-21T07:24:06;7.50;;;5.10;;
4963;SDS011;2497;47.410;9.740;2023-08-21T07:26:34;7.63;;;5.27;;
4963;SDS011;2497;47.410;9.740;2023-08-21T07:29:02;7.13;;;5.23;;
4963;SDS011;2497;47.410;9.740;2023-08-21T07:31:30;5.57;;;4.90;;
4963;SDS011;2497;47.410;9.740;2023-08-21T07:33:57;10.27;;;5.73;;
4963;SDS011;2497;47.410;9.740;2023-08-21T07:36:24;6.93;;;5.00;;
4963;SDS011;2497;47.410;9.740;2023-08-21T07:38:51;5.63;;;5.03;;
4963;SDS011;2497;47.410;9.740;2023-08-21T07:41:18;6.77;;;5.60;;
4963;SDS011;2497;47.410;9.740;2023-08-21T07:43:53;8.43;;;5.20;;
4963;SDS011;2497;47.410;9.740;2023-08-21T07:46:20;6.10;;;5.10;;
4963;SDS011;2497;47.410;9.740;2023-08-21T07:48:47;6.30;;;4.60;;
4963;SDS011;2497;47.410;9.740;2023-08-21T07:51:15;7.33;;;5.20;;
4963;SDS011;2497;47.410;9.740;2023-08-21T07:53:42;8.70;;;5.27;;
4963;SDS011;2497;47.410;9.740;2023-08-21T07:56:12;8.00;;;4.43;;
4963;SDS011;2497;47.410;9.740;2023-08-21T07:58:39;9.13;;;5.20;;
4963;SDS011;2497;47.410;9.740;2023-08-21T08:01:07;8.77;;;5.17;;
4963;SDS011;2497;47.410;9.740;2023-08-21T08:03:37;10.70;;;5.17;;
4963;SDS011;2497;47.410;9.740;2023-08-21T08:06:04;4.83;;;4.13;;
4963;SDS011;2497;47.410;9.740;2023-08-21T08:08:31;6.50;;;4.70;;
4963;SDS011;2497;47.410;9.740;2023-08-21T08:11:00;6.67;;;4.13;;
4963;SDS011;2497;47.410;9.740;2023-08-21T08:13:32;6.53;;;4.60;;
4963;SDS011;2497;47.410;9.740;2023-08-21T08:15:59;8.63;;;5.13;;
4963;SDS011;2497;47.410;9.740;2023-08-21T08:18:28;6.37;;;4.67;;
4963;SDS011;2497;47.410;9.740;2023-08-21T08:20:58;7.33;;;5.20;;
4963;SDS011;2497;47.410;9.740;2023-08-21T08:23:25;8.67;;;5.73;;
4963;SDS011;2497;47.410;9.740;2023-08-21T08:25:55;6.77;;;4.73;;
4963;SDS011;2497;47.410;9.740;2023-08-21T08:28:22;7.13;;;4.70;;
4963;SDS011;2497;47.410;9.740;2023-08-21T08:30:50;7.30;;;4.73;;
4963;SDS011;2497;47.410;9.740;2023-08-21T08:33:17;5.13;;;4.50;;
4963;SDS011;2497;47.410;9.740;2023-08-21T08:35:45;6.47;;;4.70;;
4963;SDS011;2497;47.410;9.740;2023-08-21T08:38:14;5.30;;;4.33;;
4963;SDS011;2497;47.410;9.740;2023-08-21T08:40:43;7.23;;;5.20;;
4963;SDS011;2497;47.410;9.740;2023-08-21T08:43:11;5.90;;;4.57;;
4963;SDS011;2497;47.410;9.740;2023-08-21T08:45:39;8.10;;;4.50;;
4963;SDS011;2497;47.410;9.740;2023-08-21T08:48:07;6.70;;;4.10;;
4963;SDS011;2497;47.410;9.740;2023-08-21T08:50:34;6.17;;;4.90;;
4963;SDS011;2497;47.410;9.740;2023-08-21T08:53:05;5.47;;;3.90;;
4963;SDS011;2497;47.410;9.740;2023-08-21T08:55:33;6.20;;;3.97;;
4963;SDS011;2497;47.410;9.740;2023-08-21T08:58:01;5.20;;;4.30;;
4963;SDS011;2497;47.410;9.740;2023-08-21T09:00:28;6.60;;;4.30;;
4963;SDS011;2497;47.410;9.740;2023-08-21T09:02:55;4.60;;;3.37;;
4963;SDS011;2497;47.410;9.740;2023-08-21T09:05:26;5.60;;;3.90;;
4963;SDS011;2497;47.410;9.740;2023-08-21T09:08:02;4.67;;;4.13;;
4963;SDS011;2497;47.410;9.740;2023-08-21T09:10:33;7.70;;;4.10;;
4963;SDS011;2497;47.410;9.740;2023-08-21T09:13:10;6.20;;;4.70;;
4963;SDS011;2497;47.410;9.740;2023-08-21T09:15:38;7.80;;;4.57;;
4963;SDS011;2497;47.410;9.740;2023-08-21T09:18:08;5.50;;;4.27;;
4963;SDS011;2497;47.410;9.740;2023-08-21T09:20:36;5.13;;;4.07;;
4963;SDS011;2497;47.410;9.740;2023-08-21T09:23:04;5.90;;;4.00;;
4963;SDS011;2497;47.410;9.740;2023-08-21T09:25:36;7.27;;;4.33;;
4963;SDS011;2497;47.410;9.740;2023-08-21T09:28:05;5.13;;;4.63;;
4963;SDS011;2497;47.410;9.740;2023-08-21T09:30:46;7.20;;;4.97;;
4963;SDS011;2497;47.410;9.740;2023-08-21T09:33:17;6.03;;;4.63;;
4963;SDS011;2497;47.410;9.740;2023-08-21T09:35:44;5.27;;;4.33;;
4963;SDS011;2497;47.410;9.740;2023-08-21T09:38:11;5.80;;;4.87;;
4963;SDS011;2497;47.410;9.740;2023-08-21T09:40:41;7.77;;;4.70;;
4963;SDS011;2497;47.410;9.740;2023-08-21T09:43:09;6.67;;;5.30;;
4963;SDS011;2497;47.410;9.740;2023-08-21T09:45:40;4.70;;;3.97;;
4963;SDS011;2497;47.410;9.740;2023-08-21T09:48:07;6.17;;;4.33;;
4963;SDS011;2497;47.410;9.740;2023-08-21T09:50:35;7.43;;;4.87;;
4963;SDS011;2497;47.410;9.740;2023-08-21T09:53:06;4.20;;;3.80;;
4963;SDS011;2497;47.410;9.740;2023-08-21T09:55:33;6.87;;;4.70;;
4963;SDS011;2497;47.410;9.740;2023-08-21T09:58:03;6.10;;;4.27;;
4963;SDS011;2497;47.410;9.740;2023-08-21T10:00:30;8.13;;;5.17;;
4963;SDS011;2497;47.410;9.740;2023-08-21T10:02:59;5.40;;;4.50;;
4963;SDS011;2497;47.410;9.740;2023-08-21T10:05:28;5.20;;;4.50;;
4963;SDS011;2497;47.410;9.740;2023-08-21T10:07:56;6.43;;;4.07;;
4963;SDS011;2497;47.410;9.740;2023-08-21T10:10:30;4.73;;;4.20;;
4963;SDS011;2497;47.410;9.740;2023-08-21T10:12:58;6.20;;;5.17;;
4963;SDS011;2497;47.410;9.740;2023-08-21T10:15:27;6.40;;;4.80;;
4963;SDS011;2497;47.410;9.740;2023-08-21T10:17:55;4.97;;;4.33;;
4963;SDS011;2497;47.410;9.740;2023-08-21T10:20:23;5.47;;;3.97;;
4963;SDS011;2497;47.410;9.740;2023-08-21T10:22:54;9.43;;;4.40;;
4963;SDS011;2497;47.410;9.740;2023-08-21T10:25:27;7.63;;;5.00;;
4963;SDS011;2497;47.410;9.740;2023-08-21T10:27:54;6.93;;;4.30;;
4963;SDS011;2497;47.410;9.740;2023-08-21T10:30:22;6.40;;;4.57;;
4963;SDS011;2497;47.410;9.740;2023-08-21T10:32:52;4.23;;;3.80;;
4963;SDS011;2497;47.410;9.740;2023-08-21T10:35:21;5.00;;;4.37;;
4963;SDS011;2497;47.410;9.740;2023-08-21T10:38:05;6.30;;;4.00;;
4963;SDS011;2497;47.410;9.740;2023-08-21T10:40:35;6.90;;;4.30;;
4963;SDS011;2497;47.410;9.740;2023-08-21T10:43:02;5.20;;;4.67;;
4963;SDS011;2497;47.410;9.740;2023-08-21T10:45:30;7.03;;;4.40;;
4963;SDS011;2497;47.410;9.740;2023-08-21T10:48:21;4.63;;;4.07;;
4963;SDS011;2497;47.410;9.740;2023-08-21T10:50:48;6.93;;;5.10;;
4963;SDS011;2497;47.410;9.740;2023-08-21T10:53:15;5.17;;;4.63;;
4963;SDS011;2497;47.410;9.740;2023-08-21T10:55:42;5.20;;;4.17;;
4963;SDS011;2497;47.410;9.740;2023-08-21T10:58:09;5.50;;;4.60;;
4963;SDS011;2497;47.410;9.740;2023-08-21T11:00:43;6.30;;;4.80;;
4963;SDS011;2497;47.410;9.740;2023-08-21T11:03:14;7.83;;;4.03;;
4963;SDS011;2497;47.410;9.740;2023-08-21T11:05:43;6.57;;;4.77;;
4963;SDS011;2497;47.410;9.740;2023-08-21T11:08:10;6.00;;;4.43;;
4963;SDS011;2497;47.410;9.740;2023-08-21T11:10:40;4.67;;;4.10;;
4963;SDS011;2497;47.410;9.740;2023-08-21T11:13:08;5.30;;;4.10;;
4963;SDS011;2497;47.410;9.740;2023-08-21T11:15:38;5.40;;;4.43;;
4963;SDS011;2497;47.410;9.740;2023-08-21T11:18:05;6.40;;;4.67;;
4963;SDS011;2497;47.410;9.740;2023-08-21T11:20:32;7.20;;;4.57;;
4963;SDS011;2497;47.410;9.740;2023-08-21T11:23:03;6.13;;;4.13;;
4963;SDS011;2497;47.410;9.740;2023-08-21T11:25:32;4.47;;;3.87;;
4963;SDS011;2497;47.410;9.740;2023-08-21T11:27:59;4.10;;;3.50;;
4963;SDS011;2497;47.410;9.740;2023-08-21T11:30:28;7.10;;;3.90;;
4963;SDS011;2497;47.410;9.740;2023-08-21T11:33:06;4.80;;;4.30;;
4963;SDS011;2497;47.410;9.740;2023-08-21T11:35:34;6.23;;;4.93;;
4963;SDS011;2497;47.410;9.740;2023-08-21T11:38:03;4.60;;;4.20;;
4963;SDS011;2497;47.410;9.740;2023-08-21T11:40:34;5.10;;;4.60;;
4963;SDS011;2497;47.410;9.740;2023-08-21T11:43:01;4.60;;;4.20;;
4963;SDS011;2497;47.410;9.740;2023-08-21T11:45:30;6.20;;;4.70;;
4963;SDS011;2497;47.410;9.740;2023-08-21T11:47:57;5.43;;;4.73;;
4963;SDS011;2497;47.410;9.740;2023-08-21T11:50:28;7.43;;;4.57;;
4963;SDS011;2497;47.410;9.740;2023-08-21T11:52:55;5.57;;;4.60;;
4963;SDS011;2497;47.410;9.740;2023-08-21T11:55:24;4.73;;;4.13;;
4963;SDS011;2497;47.410;9.740;2023-08-21T11:57:51;5.50;;;4.50;;
4963;SDS011;2497;47.410;9.740;2023-08-21T12:00:26;7.40;;;4.87;;
4963;SDS011;2497;47.410;9.740;2023-08-21T12:02:55;5.37;;;4.40;;
4963;SDS011;2497;47.410;9.740;2023-08-21T12:05:23;8.87;;;4.70;;
4963;SDS011;2497;47.410;9.740;2023-08-21T12:07:51;4.90;;;4.40;;
4963;SDS011;2497;47.410;9.740;2023-08-21T12:10:22;4.50;;;4.10;;
4963;SDS011;2497;47.410;9.740;2023-08-21T12:12:51;4.63;;;4.20;;
4963;SDS011;2497;47.410;9.740;2023-08-21T12:15:18;5.87;;;4.17;;
4963;SDS011;2497;47.410;9.740;2023-08-21T12:17:45;4.37;;;3.77;;
4963;SDS011;2497;47.410;9.740;2023-08-21T12:20:13;7.23;;;4.70;;
4963;SDS011;2497;47.410;9.740;2023-08-21T12:22:40;6.20;;;4.70;;
4963;SDS011;2497;47.410;9.740;2023-08-21T12:25:08;5.10;;;4.07;;
4963;SDS011;2497;47.410;9.740;2023-08-21T12:27:37;4.87;;;4.10;;
4963;SDS011;2497;47.410;9.740;2023-08-21T12:30:07;5.13;;;4.13;;
4963;SDS011;2497;47.410;9.740;2023-08-21T12:32:35;5.83;;;3.57;;
4963;SDS011;2497;47.410;9.740;2023-08-21T12:35:02;4.10;;;3.07;;
4963;SDS011;2497;47.410;9.740;2023-08-21T12:37:30;4.13;;;3.43;;
4963;SDS011;2497;47.410;9.740;2023-08-21T12:39:58;6.07;;;3.87;;
4963;SDS011;2497;47.410;9.740;2023-08-21T12:42:25;4.20;;;3.70;;
4963;SDS011;2497;47.410;9.740;2023-08-21T12:44:53;4.50;;;3.73;;
4963;SDS011;2497;47.410;9.740;2023-08-21T12:47:20;4.47;;;3.70;;
4963;SDS011;2497;47.410;9.740;2023-08-21T12:49:47;3.77;;;3.40;;
4963;SDS011;2497;47.410;9.740;2023-08-21T12:52:14;4.90;;;3.67;;
4963;SDS011;2497;47.410;9.740;2023-08-21T12:54:45;4.57;;;3.40;;
4963;SDS011;2497;47.410;9.740;2023-08-21T12:57:11;4.20;;;3.43;;
4963;SDS011;2497;47.410;9.740;2023-08-21T12:59:38;5.53;;;4.33;;
4963;SDS011;2497;47.410;9.740;2023-08-21T13:02:07;8.23;;;3.57;;
4963;SDS011;2497;47.410;9.740;2023-08-21T13:04:37;3.97;;;3.57;;
4963;SDS011;2497;47.410;9.740;2023-08-21T13:07:04;6.10;;;3.67;;
4963;SDS011;2497;47.410;9.740;2023-08-21T13:09:31;8.30;;;4.40;;
4963;SDS011;2497;47.410;9.740;2023-08-21T13:12:00;5.77;;;3.97;;
4963;SDS011;2497;47.410;9.740;2023-08-21T13:14:29;4.47;;;4.07;;
4963;SDS011;2497;47.410;9.740;2023-08-21T13:16:56;8.87;;;3.70;;
4963;SDS011;2497;47.410;9.740;2023-08-21T13:19:25;3.50;;;3.00;;
4963;SDS011;2497;47.410;9.740;2023-08-21T13:21:52;5.43;;;3.50;;
4963;SDS011;2497;47.410;9.740;2023-08-21T13:24:20;3.60;;;2.90;;
4963;SDS011;2497;47.410;9.740;2023-08-21T13:26:50;4.57;;;3.70;;
4963;SDS011;2497;47.410;9.740;2023-08-21T13:29:21;4.13;;;3.73;;
4963;SDS011;2497;47.410;9.740;2023-08-21T13:31:57;5.00;;;4.43;;
4963;SDS011;2497;47.410;9.740;2023-08-21T13:34:29;4.30;;;3.27;;
4963;SDS011;2497;47.410;9.740;2023-08-21T13:36:56;5.43;;;3.90;;
4963;SDS011;2497;47.410;9.740;2023-08-21T13:39:24;4.30;;;3.80;;
4963;SDS011;2497;47.410;9.740;2023-08-21T13:41:51;5.47;;;4.20;;
4963;SDS011;2497;47.410;9.740;2023-08-21T13:44:18;4.67;;;3.80;;
4963;SDS011;2497;47.410;9.740;2023-08-21T13:46:48;5.20;;;4.40;;
4963;SDS011;2497;47.410;9.740;2023-08-21T13:49:15;7.93;;;4.37;;
4963;SDS011;2497;47.410;9.740;2023-08-21T13:51:44;3.90;;;3.50;;
4963;SDS011;2497;47.410;9.740;2023-08-21T13:54:14;5.20;;;3.90;;
4963;SDS011;2497;47.410;9.740;2023-08-21T13:56:41;6.90;;;4.50;;
4963;SDS011;2497;47.410;9.740;2023-08-21T13:59:10;5.40;;;3.80;;
4963;SDS011;2497;47.410;9.740;2023-08-21T14:01:37;6.93;;;4.30;;
4963;SDS011;2497;47.410;9.740;2023-08-21T14:04:04;5.17;;;4.33;;
4963;SDS011;2497;47.410;9.740;2023-08-21T14:06:31;5.87;;;4.23;;
4963;SDS011;2497;47.410;9.740;2023-08-21T14:09:00;5.20;;;3.70;;
4963;SDS011;2497;47.410;9.740;2023-08-21T14:11:30;5.60;;;4.30;;
4963;SDS011;2497;47.410;9.740;2023-08-21T14:13:57;6.00;;;3.70;;
4963;SDS011;2497;47.410;9.740;2023-08-21T14:16:24;5.33;;;4.00;;
4963;SDS011;2497;47.410;9.740;2023-08-21T14:18:51;5.80;;;4.10;;
4963;SDS011;2497;47.410;9.740;2023-08-21T14:21:18;5.40;;;4.30;;
4963;SDS011;2497;47.410;9.740;2023-08-21T14:23:46;12.43;;;4.70;;
4963;SDS011;2497;47.410;9.740;2023-08-21T14:26:17;7.80;;;4.43;;
4963;SDS011;2497;47.410;9.740;2023-08-21T14:28:44;5.00;;;4.00;;
4963;SDS011;2497;47.410;9.740;2023-08-21T14:31:16;12.83;;;4.30;;
4963;SDS011;2497;47.410;9.740;2023-08-21T14:33:44;5.23;;;3.80;;
4963;SDS011;2497;47.410;9.740;2023-08-21T14:36:14;5.70;;;4.17;;
4963;SDS011;2497;47.410;9.740;2023-08-21T14:38:44;5.37;;;3.90;;
4963;SDS011;2497;47.410;9.740;2023-08-21T14:41:11;5.57;;;4.37;;
4963;SDS011;2497;47.410;9.740;2023-08-21T14:43:42;5.37;;;4.47;;
4963;SDS011;2497;47.410;9.740;2023-08-21T14:46:10;5.00;;;4.20;;
4963;SDS011;2497;47.410;9.740;2023-08-21T14:48:37;6.47;;;3.93;;
4963;SDS011;2497;47.410;9.740;2023-08-21T14:51:04;6.23;;;3.97;;
4963;SDS011;2497;47.410;9.740;2023-08-21T14:53:31;4.97;;;4.40;;
4963;SDS011;2497;47.410;9.740;2023-08-21T14:55:58;5.70;;;4.00;;
4963;SDS011;2497;47.410;9.740;2023-08-21T14:58:25;7.03;;;3.80;;
4963;SDS011;2497;47.410;9.740;2023-08-21T15:00:56;6.37;;;4.40;;
4963;SDS011;2497;47.410;9.740;2023-08-21T15:03:23;4.43;;;4.00;;
4963;SDS011;2497;47.410;9.740;2023-08-21T15:05:50;4.87;;;4.20;;
4963;SDS011;2497;47.410;9.740;2023-08-21T15:08:17;4.90;;;3.83;;
4963;SDS011;2497;47.410;9.740;2023-08-21T15:10:44;5.80;;;4.00;;
4963;SDS011;2497;47.410;9.740;2023-08-21T15:13:12;7.70;;;4.17;;
4963;SDS011;2497;47.410;9.740;2023-08-21T15:15:39;4.30;;;3.67;;
4963;SDS011;2497;47.410;9.740;2023-08-21T15:18:07;5.60;;;3.87;;
4963;SDS011;2497;47.410;9.740;2023-08-21T15:20:34;4.60;;;3.90;;
4963;SDS011;2497;47.410;9.740;2023-08-21T15:23:04;4.67;;;3.50;;